Time;durP1;ratioP1;P1;durP2;ratioP2;P2;SDS_P1;SDS_P2;PMS_P1;PMS_P2;Temp;Humidity;BMP_temperature;BMP_pressure;BME280_temperature;BME280_humidity;BME280_pressure;Samples;Min_cycle;Max_cycle;Signal;HPM_P1;HPM_P2
2023/02/17 00:01:07;;;;;;;;;;;;;;;;;;6220821;23;19947;-92
2023/02/17 00:03:33;;;;;;;;;;;;;;;;;;6245617;23;19927;-93
2023/02/17 00:05:59;;;;;;;;;;;;;;;;;;6220224;23;19926;-92
2023/02/17 00:08:25;;;;;;;;;;;;;;;;;;6220777;23;19920;-92
2023/02/17 00:10:51;;;;;;;;;;;;;;;;;;6246100;23;19922;-92
2023/02/17 00:13:17;;;;;;;;;;;;;;;;;;6220414;23;19998;-92
2023/02/17 00:15:43;;;;;;;;;;;;;;;;;;6220227;23;20256;-92
2023/02/17 00:18:09;;;;;;;;;;;;;;;;;;6220373;23;19938;-92
2023/02/17 00:20:34;;;;;;;;;;;;;;;;;;6245411;23;19924;-92
2023/02/17 00:23:00;;;;;;;;;;;;;;;;;;6247063;23;19982;-91
2023/02/17 00:25:26;;;;;;;;;;;;;;;;;;6245592;23;19945;-92
2023/02/17 00:27:52;;;;;;;;;;;;;;;;;;6220186;22;19966;-92
2023/02/17 00:30:18;;;;;;;;;;;;;;;;;;6220738;23;19955;-93
2023/02/17 00:32:44;;;;;;;;;;;;;;;;;;6245341;23;20279;-91
2023/02/17 00:35:10;;;;;;;;;;;;;;;;;;6249998;23;19962;-93
2023/02/17 00:37:37;;;;;;;;;;;;;;;;;;6224946;23;19939;-91
2023/02/17 00:40:03;;;;;;;;;;;;;;;;;;6224001;23;19923;-93
2023/02/17 00:42:29;;;;;;;;;;;;;;;;;;6222810;23;19946;-94
2023/02/17 00:44:55;;;;;;;;;;;;;;;;;;6224103;23;19954;-92
2023/02/17 00:47:20;;;;;;;;;;;;;;;;;;6223651;23;19915;-92
2023/02/17 00:49:46;;;;;;;;;;;;;;;;;;6229147;23;19920;-91
2023/02/17 00:52:12;;;;;;;;;;;;;;;;;;6223584;23;19915;-92
2023/02/17 00:54:39;;;;;;;;;;;;;;;;;;6223605;23;20309;-92
2023/02/17 00:57:05;;;;;;;;;;;;;;;;;;6225200;23;19974;-93
2023/02/17 00:59:31;;;;;;;;;;;;;;;;;;6225522;23;19915;-92
2023/02/17 01:01:57;;;;;;;;;;;;;;;;;;6224334;23;19916;-93
2023/02/17 01:04:23;;;;;;;;;;;;;;;;;;6223355;23;20038;-94
2023/02/17 01:06:49;;;;;;;;;;;;;;;;;;6247233;23;19915;-93
2023/02/17 01:09:15;;;;;;;;;;;;;;;;;;6220236;23;19926;-93
2023/02/17 01:11:40;;;;;;;;;;;;;;;;;;6219525;23;19955;-93
2023/02/17 01:14:06;;;;;;;;;;;;;;;;;;6219768;23;19915;-92
2023/02/17 01:16:34;;;;;;;;;;;;;;;;;;6219936;23;19923;-92
2023/02/17 01:18:59;;;;;;;;;;;;;;;;;;6220042;23;19922;-93
2023/02/17 01:21:25;;;;;;;;;;;;;;;;;;6220083;23;19915;-92
2023/02/17 01:23:51;;;;;;;;;;;;;;;;;;6220142;23;19947;-92
2023/02/17 01:26:17;;;;;;;;;;;;;;;;;;6219377;23;19920;-93
2023/02/17 01:28:43;;;;;;;;;;;;;;;;;;6220155;23;19915;-92
2023/02/17 01:31:09;;;;;;;;;;;;;;;;;;6245449;23;20390;-92
2023/02/17 01:33:35;;;;;;;;;;;;;;;;;;6220155;23;19920;-91
2023/02/17 01:36:01;;;;;;;;;;;;;;;;;;6219607;23;20062;-92
2023/02/17 01:38:27;;;;;;;;;;;;;;;;;;6245043;22;19922;-91
2023/02/17 01:40:54;;;;;;;;;;;;;;;;;;6245404;23;19950;-91
2023/02/17 01:43:20;;;;;;;;;;;;;;;;;;6245275;23;19916;-91
2023/02/17 01:45:46;;;;;;;;;;;;;;;;;;6219930;23;19915;-91
2023/02/17 01:48:12;;;;;;;;;;;;;;;;;;6244314;22;20303;-90
2023/02/17 01:50:38;;;;;;;;;;;;;;;;;;6218814;23;20325;-92
2023/02/17 01:53:04;;;;;;;;;;;;;;;;;;6244159;23;19915;-92
2023/02/17 01:55:30;;;;;;;;;;;;;;;;;;6219353;23;19974;-92
2023/02/17 01:57:56;;;;;;;;;;;;;;;;;;6219685;22;19919;-93
2023/02/17 02:00:22;;;;;;;;;;;;;;;;;;6219745;23;19920;-92
2023/02/17 02:02:48;;;;;;;;;;;;;;;;;;6219720;23;19916;-93
2023/02/17 02:05:13;;;;;;;;;;;;;;;;;;6245268;23;20257;-91
2023/02/17 02:07:39;;;;;;;;;;;;;;;;;;6245352;23;19916;-93
2023/02/17 02:10:05;;;;;;;;;;;;;;;;;;6220222;23;20260;-92
2023/02/17 02:12:31;;;;;;;;;;;;;;;;;;6220113;23;19951;-93
2023/02/17 02:14:57;;;;;;;;;;;;;;;;;;6219725;23;19916;-93
2023/02/17 02:17:23;;;;;;;;;;;;;;;;;;6244755;23;19919;-93
2023/02/17 02:19:49;;;;;;;;;;;;;;;;;;6244930;22;19946;-93
2023/02/17 02:22:15;;;;;;;;;;;;;;;;;;6221273;23;19919;-94
2023/02/17 02:24:41;;;;;;;;;;;;;;;;;;6221545;23;19916;-93
2023/02/17 02:27:07;;;;;;;;;;;;;;;;;;6246874;23;20309;-91
2023/02/17 02:29:33;;;;;;;;;;;;;;;;;;6221309;23;19923;-93
2023/02/17 02:31:59;;;;;;;;;;;;;;;;;;6220838;23;19916;-94
2023/02/17 02:34:25;;;;;;;;;;;;;;;;;;6221586;23;19946;-92
2023/02/17 02:36:51;;;;;;;;;;;;;;;;;;6221577;23;20257;-93
2023/02/17 02:39:16;;;;;;;;;;;;;;;;;;6221203;23;20356;-94
2023/02/17 02:41:42;;;;;;;;;;;;;;;;;;6221594;23;19915;-94
2023/02/17 02:44:08;;;;;;;;;;;;;;;;;;6246615;23;19915;-93
2023/02/17 02:46:34;;;;;;;;;;;;;;;;;;6221572;23;19919;-93
2023/02/17 02:49:00;;;;;;;;;;;;;;;;;;6221130;23;19919;-93
2023/02/17 02:51:26;;;;;;;;;;;;;;;;;;6221354;23;19915;-93
2023/02/17 02:53:52;;;;;;;;;;;;;;;;;;6246550;23;19915;-93
2023/02/17 02:56:18;;;;;;;;;;;;;;;;;;6221169;23;19926;-94
2023/02/17 02:58:44;;;;;;;;;;;;;;;;;;6246597;22;19986;-93
2023/02/17 03:01:12;;;;;;;;;;;;;;;;;;6221628;23;19951;-93
2023/02/17 03:03:41;;;;;;;;;;;;;;;;;;6222382;23;19994;-94
2023/02/17 03:06:07;;;;;;;;;;;;;;;;;;6197035;23;19942;-95
2023/02/17 03:08:33;;;;;;;;;;;;;;;;;;6196196;23;19919;-93
2023/02/17 03:10:59;;;;;;;;;;;;;;;;;;6220416;23;19915;-95
2023/02/17 03:13:36;;;;;;;;;;;;;;;;;;6196909;23;19942;-96
2023/02/17 03:16:02;;;;;;;;;;;;;;;;;;6195972;23;19926;-94
2023/02/17 03:18:28;;;;;;;;;;;;;;;;;;6196371;23;19915;-93
2023/02/17 03:20:54;;;;;;;;;;;;;;;;;;6221305;23;19923;-94
2023/02/17 03:23:20;;;;;;;;;;;;;;;;;;6221382;23;19942;-95
2023/02/17 03:25:49;;;;;;;;;;;;;;;;;;6195555;23;19919;-94
2023/02/17 03:28:17;;;;;;;;;;;;;;;;;;6195999;23;19919;-95
2023/02/17 03:30:43;;;;;;;;;;;;;;;;;;6196166;23;19915;-94
2023/02/17 03:33:09;;;;;;;;;;;;;;;;;;6195750;23;19923;-93
2023/02/17 03:35:45;;;;;;;;;;;;;;;;;;6221000;23;19923;-93
2023/02/17 03:38:11;;;;;;;;;;;;;;;;;;6195140;23;19916;-92
2023/02/17 03:40:37;;;;;;;;;;;;;;;;;;6195560;23;19915;-92
2023/02/17 03:43:03;;;;;;;;;;;;;;;;;;6195988;23;20013;-93
2023/02/17 03:45:29;;;;;;;;;;;;;;;;;;6195675;23;19955;-94
2023/02/17 03:47:55;;;;;;;;;;;;;;;;;;6220844;22;19970;-93
2023/02/17 03:50:21;;;;;;;;;;;;;;;;;;6220513;23;20248;-94
2023/02/17 03:52:49;;;;;;;;;;;;;;;;;;6195485;23;19915;-94
2023/02/17 03:55:15;;;;;;;;;;;;;;;;;;6195529;23;20257;-94
2023/02/17 03:57:44;;;;;;;;;;;;;;;;;;6220096;23;19922;-93
2023/02/17 04:00:10;;;;;;;;;;;;;;;;;;6195475;23;19938;-95
2023/02/17 04:02:36;;;;;;;;;;;;;;;;;;6233691;23;20332;-93
2023/02/17 04:05:02;;;;;;;;;;;;;;;;;;6220978;23;19946;-94
2023/02/17 04:07:28;;;;;;;;;;;;;;;;;;6220810;23;19920;-95
2023/02/17 04:09:54;;;;;;;;;;;;;;;;;;6246237;22;19915;-95
2023/02/17 04:12:20;;;;;;;;;;;;;;;;;;6244849;23;19922;-96
2023/02/17 04:14:46;;;;;;;;;;;;;;;;;;6220620;23;19916;-95
2023/02/17 04:17:21;;;;;;;;;;;;;;;;;;6221141;23;19943;-94
2023/02/17 04:19:47;;;;;;;;;;;;;;;;;;6246572;22;20230;-94
2023/02/17 04:22:13;;;;;;;;;;;;;;;;;;6220982;23;19946;-94
2023/02/17 04:24:39;;;;;;;;;;;;;;;;;;6220854;23;19922;-95
2023/02/17 04:27:05;;;;;;;;;;;;;;;;;;6220715;23;19959;-95
2023/02/17 04:29:38;;;;;;;;;;;;;;;;;;6221004;23;19916;-94
2023/02/17 04:32:04;;;;;;;;;;;;;;;;;;6221093;23;19915;-95
2023/02/17 04:34:30;;;;;;;;;;;;;;;;;;6246090;23;19915;-95
2023/02/17 04:39:52;;;;;;;;;;;;;;;;;;;;;
2023/02/17 04:42:21;;;;;;;;;;;;;;;;;;6245950;23;19915;-95
2023/02/17 04:44:47;;;;;;;;;;;;;;;;;;6219973;23;19975;-93
2023/02/17 04:47:13;;;;;;;;;;;;;;;;;;6220217;23;19915;-94
2023/02/17 04:49:39;;;;;;;;;;;;;;;;;;6220100;23;19982;-94
2023/02/17 04:52:08;;;;;;;;;;;;;;;;;;6219818;23;19919;-96
2023/02/17 04:54:34;;;;;;;;;;;;;;;;;;6249739;23;19958;-96
2023/02/17 04:57:06;;;;;;;;;;;;;;;;;;6247701;23;19919;-95
2023/02/17 04:59:35;;;;;;;;;;;;;;;;;;6221357;23;19927;-95
2023/02/17 05:02:03;;;;;;;;;;;;;;;;;;6246659;23;19990;-95
2023/02/17 05:04:29;;;;;;;;;;;;;;;;;;6247282;23;19991;-94
2023/02/17 05:07:13;;;;;;;;;;;;;;;;;;6221251;23;19920;-95
2023/02/17 05:09:47;;;;;;;;;;;;;;;;;;6246155;22;19970;-94
2023/02/17 05:12:13;;;;;;;;;;;;;;;;;;6247725;23;19962;-94
2023/02/17 05:15:00;;;;;;;;;;;;;;;;;;6219973;23;20057;-94
2023/02/17 05:23:12;;;;;;;;;;;;;;;;;;6214164;23;19939;-93
2023/02/17 05:25:39;;;;;;;;;;;;;;;;;;6245175;23;20369;-94
2023/02/17 05:28:05;;;;;;;;;;;;;;;;;;6220023;22;19916;-94
2023/02/17 05:30:31;;;;;;;;;;;;;;;;;;6219957;23;20355;-94
2023/02/17 05:32:57;;;;;;;;;;;;;;;;;;6245187;23;20325;-93
2023/02/17 05:35:23;;;;;;;;;;;;;;;;;;6220370;23;19927;-94
2023/02/17 05:37:49;;;;;;;;;;;;;;;;;;6219949;22;19916;-94
2023/02/17 05:40:15;;;;;;;;;;;;;;;;;;6245551;23;19923;-94
2023/02/17 05:42:41;;;;;;;;;;;;;;;;;;6244845;23;20245;-93
2023/02/17 05:45:07;;;;;;;;;;;;;;;;;;6219985;23;19915;-93
2023/02/17 05:47:34;;;;;;;;;;;;;;;;;;6245154;23;19930;-94
2023/02/17 05:50:00;;;;;;;;;;;;;;;;;;6219915;23;19987;-93
2023/02/17 05:52:26;;;;;;;;;;;;;;;;;;6220012;23;20244;-95
2023/02/17 05:54:52;;;;;;;;;;;;;;;;;;6220142;23;20344;-94
2023/02/17 05:57:18;;;;;;;;;;;;;;;;;;6247162;23;19920;-94
2023/02/17 05:59:44;;;;;;;;;;;;;;;;;;6221587;23;19922;-92
2023/02/17 06:02:10;;;;;;;;;;;;;;;;;;6219988;23;20023;-92
2023/02/17 06:04:36;;;;;;;;;;;;;;;;;;6221413;23;19926;-91
2023/02/17 06:07:02;;;;;;;;;;;;;;;;;;6245652;23;19916;-91
2023/02/17 06:09:27;;;;;;;;;;;;;;;;;;6220640;23;19915;-91
2023/02/17 06:11:53;;;;;;;;;;;;;;;;;;6219378;23;19986;-90
2023/02/17 06:14:19;;;;;;;;;;;;;;;;;;6245403;23;19922;-90
2023/02/17 06:16:45;;;;;;;;;;;;;;;;;;6246504;23;20087;-89
2023/02/17 06:19:11;;;;;;;;;;;;;;;;;;6220275;23;19938;-91
2023/02/17 06:21:39;;;;;;;;;;;;;;;;;;6245669;23;19955;-91
2023/02/17 06:24:05;;;;;;;;;;;;;;;;;;6245787;23;19920;-91
2023/02/17 06:26:34;;;;;;;;;;;;;;;;;;6246293;23;19916;-88
2023/02/17 06:29:00;;;;;;;;;;;;;;;;;;6220393;23;19990;-89
2023/02/17 06:31:26;;;;;;;;;;;;;;;;;;6220218;23;19919;-89
2023/02/17 06:33:52;;;;;;;;;;;;;;;;;;6245705;23;19938;-90
2023/02/17 06:36:18;;;;;;;;;;;;;;;;;;6247012;23;19942;-91
2023/02/17 06:38:44;;;;;;;;;;;;;;;;;;6219846;23;19923;-90
2023/02/17 06:41:10;;;;;;;;;;;;;;;;;;6245365;23;19916;-89
2023/02/17 06:43:36;;;;;;;;;;;;;;;;;;6245106;23;19915;-90
2023/02/17 06:46:01;;;;;;;;;;;;;;;;;;6246923;23;20272;-90
2023/02/17 06:48:27;;;;;;;;;;;;;;;;;;6245630;22;20383;-89
2023/02/17 06:50:53;;;;;;;;;;;;;;;;;;6220074;23;19966;-90
2023/02/17 06:53:19;;;;;;;;;;;;;;;;;;6245388;23;19916;-89
2023/02/17 06:55:45;;;;;;;;;;;;;;;;;;6245585;23;20236;-89
2023/02/17 06:58:11;;;;;;;;;;;;;;;;;;6246672;22;20381;-91
2023/02/17 07:00:40;;;;;;;;;;;;;;;;;;6220205;23;19915;-90
2023/02/17 07:03:06;;;;;;;;;;;;;;;;;;6219377;23;20030;-89
2023/02/17 07:05:32;;;;;;;;;;;;;;;;;;6219685;23;19970;-92
2023/02/17 07:07:58;;;;;;;;;;;;;;;;;;6220613;22;19915;-91
2023/02/17 07:10:24;;;;;;;;;;;;;;;;;;6246425;23;19920;-91
2023/02/17 07:12:50;;;;;;;;;;;;;;;;;;6220058;23;20351;-91
2023/02/17 07:15:16;;;;;;;;;;;;;;;;;;6220321;23;20242;-91
2023/02/17 07:17:42;;;;;;;;;;;;;;;;;;6220654;23;19919;-91
2023/02/17 07:20:08;;;;;;;;;;;;;;;;;;6220863;23;19992;-91
2023/02/17 07:22:34;;;;;;;;;;;;;;;;;;6245476;23;19916;-91
2023/02/17 07:25:00;;;;;;;;;;;;;;;;;;6220611;23;19923;-92
2023/02/17 07:27:26;;;;;;;;;;;;;;;;;;6220715;23;19915;-92
2023/02/17 07:29:51;;;;;;;;;;;;;;;;;;6220787;23;19945;-91
2023/02/17 07:32:17;;;;;;;;;;;;;;;;;;6221034;23;19926;-91
2023/02/17 07:34:43;;;;;;;;;;;;;;;;;;6220571;23;20011;-91
2023/02/17 07:37:09;;;;;;;;;;;;;;;;;;6220575;23;19927;-91
2023/02/17 07:39:35;;;;;;;;;;;;;;;;;;6220746;23;20245;-90
2023/02/17 07:42:03;;;;;;;;;;;;;;;;;;6220194;23;19915;-91
2023/02/17 07:44:29;;;;;;;;;;;;;;;;;;6245915;23;19916;-93
2023/02/17 07:46:55;;;;;;;;;;;;;;;;;;6220914;23;19973;-93
2023/02/17 07:49:21;;;;;;;;;;;;;;;;;;6220861;23;19915;-93
2023/02/17 07:51:47;;;;;;;;;;;;;;;;;;6220223;23;19922;-92
2023/02/17 07:54:34;;;;;;;;;;;;;;;;;;6246456;23;19994;-96
2023/02/17 07:57:02;;;;;;;;;;;;;;;;;;6246807;23;19919;-94
2023/02/17 08:02:14;;;;;;;;;;;;;;;;;;6240344;23;19958;-92
2023/02/17 08:04:40;;;;;;;;;;;;;;;;;;6195695;23;19919;-92
2023/02/17 08:07:06;;;;;;;;;;;;;;;;;;6195121;23;19915;-92
2023/02/17 08:15:02;;;;;;;;;;;;;;;;;;6246872;23;20241;-92
2023/02/17 08:17:27;;;;;;;;;;;;;;;;;;6194701;23;19919;-94
2023/02/17 08:22:44;;;;;;;;;;;;;;;;;;6247460;23;19981;-92
2023/02/17 08:25:10;;;;;;;;;;;;;;;;;;6220321;23;19916;-91
2023/02/17 08:27:36;;;;;;;;;;;;;;;;;;6195006;23;19915;-91
2023/02/17 08:30:08;;;;;;;;;;;;;;;;;;6194630;23;19939;-93
2023/02/17 08:32:34;;;;;;;;;;;;;;;;;;6194297;23;19938;-90
2023/02/17 08:35:04;;;;;;;;;;;;;;;;;;6219295;23;20329;-93
2023/02/17 08:37:46;;;;;;;;;;;;;;;;;;6216822;22;20269;-93
2023/02/17 08:40:12;;;;;;;;;;;;;;;;;;6195090;23;19916;-94
2023/02/17 08:42:38;;;;;;;;;;;;;;;;;;6220345;23;20329;-93
2023/02/17 08:45:04;;;;;;;;;;;;;;;;;;6220254;23;19986;-94
2023/02/17 08:47:30;;;;;;;;;;;;;;;;;;6195055;23;20242;-91
2023/02/17 08:49:56;;;;;;;;;;;;;;;;;;6219785;23;20313;-93
2023/02/17 08:52:22;;;;;;;;;;;;;;;;;;6195110;23;20328;-93
2023/02/17 08:54:48;;;;;;;;;;;;;;;;;;6195121;23;20313;-93
2023/02/17 08:57:14;;;;;;;;;;;;;;;;;;6220244;23;20006;-94
2023/02/17 08:59:40;;;;;;;;;;;;;;;;;;6195025;23;19938;-93
2023/02/17 09:02:13;;;;;;;;;;;;;;;;;;6201248;23;19922;-94
2023/02/17 09:04:39;;;;;;;;;;;;;;;;;;6219697;23;19966;-95
2023/02/17 09:07:05;;;;;;;;;;;;;;;;;;6220802;23;19919;-96
2023/02/17 09:09:32;;;;;;;;;;;;;;;;;;6245391;22;19987;-94
2023/02/17 09:11:58;;;;;;;;;;;;;;;;;;6245788;23;19916;-93
2023/02/17 09:14:24;;;;;;;;;;;;;;;;;;6245222;23;19923;-92
2023/02/17 09:16:50;;;;;;;;;;;;;;;;;;6220661;23;19998;-94
2023/02/17 09:19:25;;;;;;;;;;;;;;;;;;6222302;23;19920;-93
2023/02/17 09:21:51;;;;;;;;;;;;;;;;;;6245543;23;19969;-91
2023/02/17 09:24:17;;;;;;;;;;;;;;;;;;6246154;23;19926;-92
2023/02/17 09:26:43;;;;;;;;;;;;;;;;;;6248018;23;19916;-95
2023/02/17 09:32:04;;;;;;;;;;;;;;;;;;6258726;23;19943;-94
2023/02/17 09:34:30;;;;;;;;;;;;;;;;;;6238596;23;19915;-95
2023/02/17 09:36:59;;;;;;;;;;;;;;;;;;6265087;23;19943;-94
2023/02/17 09:39:34;;;;;;;;;;;;;;;;;;6262471;22;19919;-95
2023/02/17 09:42:02;;;;;;;;;;;;;;;;;;6236459;23;19959;-93
2023/02/17 09:44:37;;;;;;;;;;;;;;;;;;6235037;23;19916;-95
2023/02/17 09:47:14;;;;;;;;;;;;;;;;;;6260529;23;19955;-95
2023/02/17 09:49:49;;;;;;;;;;;;;;;;;;6232348;23;19916;-91
2023/02/17 09:55:22;;;;;;;;;;;;;;;;;;6267273;22;19915;-94
2023/02/17 09:57:51;;;;;;;;;;;;;;;;;;6259781;22;20013;-93
2023/02/17 10:00:17;;;;;;;;;;;;;;;;;;6258608;23;19915;-93
2023/02/17 10:05:38;;;;;;;;;;;;;;;;;;6174948;23;19964;-95
2023/02/17 10:08:08;;;;;;;;;;;;;;;;;;6249772;22;19916;-96
2023/02/17 10:10:37;;;;;;;;;;;;;;;;;;6248670;23;19916;-94
2023/02/17 10:16:16;;;;;;;;;;;;;;;;;;6221455;23;19943;-95
2023/02/17 10:18:44;;;;;;;;;;;;;;;;;;6247363;22;20349;-95
2023/02/17 10:21:23;;;;;;;;;;;;;;;;;;;;;
2023/02/17 10:23:51;;;;;;;;;;;;;;;;;;6247916;23;19921;-94
2023/02/17 10:31:55;;;;;;;;;;;;;;;;;;6248529;23;19920;-96
2023/02/17 10:34:23;;;;;;;;;;;;;;;;;;6221772;23;19927;-94
2023/02/17 10:36:50;;;;;;;;;;;;;;;;;;6222438;23;19923;-93
2023/02/17 10:39:16;;;;;;;;;;;;;;;;;;6221734;23;20399;-93
2023/02/17 10:42:00;;;;;;;;;;;;;;;;;;6226313;23;19922;-96
2023/02/17 10:44:26;;;;;;;;;;;;;;;;;;6221592;23;19942;-93
2023/02/17 10:46:52;;;;;;;;;;;;;;;;;;6221798;23;20329;-91
2023/02/17 10:49:18;;;;;;;;;;;;;;;;;;6220725;23;19915;-91
2023/02/17 10:51:44;;;;;;;;;;;;;;;;;;6245983;23;19916;-92
2023/02/17 10:54:10;;;;;;;;;;;;;;;;;;6220554;23;20317;-92
2023/02/17 10:56:39;;;;;;;;;;;;;;;;;;6248247;23;19922;-93
2023/02/17 10:59:05;;;;;;;;;;;;;;;;;;6222200;23;19919;-94
2023/02/17 11:01:31;;;;;;;;;;;;;;;;;;6220780;23;19973;-93
2023/02/17 11:03:57;;;;;;;;;;;;;;;;;;6195329;23;20347;-91
2023/02/17 11:06:24;;;;;;;;;;;;;;;;;;6195056;23;20345;-93
2023/02/17 11:08:50;;;;;;;;;;;;;;;;;;6195533;23;19915;-92
2023/02/17 11:11:16;;;;;;;;;;;;;;;;;;6195053;23;19923;-91
2023/02/17 11:13:42;;;;;;;;;;;;;;;;;;6195924;23;19926;-93
2023/02/17 11:16:08;;;;;;;;;;;;;;;;;;6195859;23;19992;-90
2023/02/17 11:18:34;;;;;;;;;;;;;;;;;;6195681;23;19915;-93
2023/02/17 11:21:00;;;;;;;;;;;;;;;;;;6195909;23;19927;-94
2023/02/17 11:23:26;;;;;;;;;;;;;;;;;;6195863;23;19994;-95
2023/02/17 11:25:52;;;;;;;;;;;;;;;;;;6194791;23;19916;-95
2023/02/17 11:28:18;;;;;;;;;;;;;;;;;;6195700;23;20565;-94
2023/02/17 11:30:44;;;;;;;;;;;;;;;;;;6195698;23;20347;-96
2023/02/17 11:33:10;;;;;;;;;;;;;;;;;;6195463;23;19922;-95
2023/02/17 11:35:36;;;;;;;;;;;;;;;;;;6220753;23;19922;-96
2023/02/17 11:38:02;;;;;;;;;;;;;;;;;;6195578;22;19915;-96
2023/02/17 11:40:30;;;;;;;;;;;;;;;;;;6195626;23;19934;-96
2023/02/17 11:42:59;;;;;;;;;;;;;;;;;;6195410;23;19915;-95
2023/02/17 11:45:24;;;;;;;;;;;;;;;;;;6220768;23;19923;-95
2023/02/17 11:47:53;;;;;;;;;;;;;;;;;;6220566;22;20259;-94
2023/02/17 11:50:22;;;;;;;;;;;;;;;;;;6195905;23;19937;-95
2023/02/17 11:52:47;;;;;;;;;;;;;;;;;;6221252;23;19916;-94
2023/02/17 11:55:16;;;;;;;;;;;;;;;;;;6195476;23;19919;-95
2023/02/17 11:57:42;;;;;;;;;;;;;;;;;;6195402;23;19916;-96
2023/02/17 12:00:08;;;;;;;;;;;;;;;;;;6219887;23;20240;-95
2023/02/17 12:02:37;;;;;;;;;;;;;;;;;;6232962;23;19994;-96
2023/02/17 12:05:03;;;;;;;;;;;;;;;;;;6250920;23;20195;-95
2023/02/17 12:07:28;;;;;;;;;;;;;;;;;;6246386;23;19926;-94
2023/02/17 12:09:54;;;;;;;;;;;;;;;;;;6220536;23;19958;-95
2023/02/17 12:12:23;;;;;;;;;;;;;;;;;;6247053;23;19916;-95
2023/02/17 12:14:49;;;;;;;;;;;;;;;;;;6220417;23;19927;-93
2023/02/17 12:17:15;;;;;;;;;;;;;;;;;;6220417;23;19920;-94
2023/02/17 12:19:41;;;;;;;;;;;;;;;;;;6245379;22;19944;-94
2023/02/17 12:22:09;;;;;;;;;;;;;;;;;;6220403;23;19935;-94
2023/02/17 12:24:38;;;;;;;;;;;;;;;;;;6245800;23;20256;-93
2023/02/17 12:27:04;;;;;;;;;;;;;;;;;;6246000;23;19915;-94
2023/02/17 12:29:30;;;;;;;;;;;;;;;;;;6220293;23;19922;-94
2023/02/17 12:31:56;;;;;;;;;;;;;;;;;;6220646;23;19915;-94
2023/02/17 12:34:21;;;;;;;;;;;;;;;;;;6246420;23;19954;-96
2023/02/17 12:36:51;;;;;;;;;;;;;;;;;;6221330;23;19916;-94
2023/02/17 12:39:20;;;;;;;;;;;;;;;;;;6219623;23;20247;-96
2023/02/17 12:44:22;;;;;;;;;;;;;;;;;;6244050;22;19920;-95
2023/02/17 12:46:54;;;;;;;;;;;;;;;;;;6248980;23;19923;-96
2023/02/17 12:49:29;;;;;;;;;;;;;;;;;;6221053;23;20226;-96
2023/02/17 12:51:58;;;;;;;;;;;;;;;;;;6195980;23;20287;-95
2023/02/17 12:54:26;;;;;;;;;;;;;;;;;;6194471;23;19955;-95
2023/02/17 12:56:53;;;;;;;;;;;;;;;;;;6195447;23;20045;-94
2023/02/17 12:59:37;;;;;;;;;;;;;;;;;;6220678;23;19919;-96
2023/02/17 13:05:00;;;;;;;;;;;;;;;;;;6235593;23;19920;-94
2023/02/17 13:07:50;;;;;;;;;;;;;;;;;;6223007;22;19938;-96
2023/02/17 13:10:21;;;;;;;;;;;;;;;;;;6221262;23;19942;-95
2023/02/17 13:15:45;;;;;;;;;;;;;;;;;;6182358;23;19974;-96
2023/02/17 13:18:12;;;;;;;;;;;;;;;;;;6219754;23;19915;-94
2023/02/17 13:20:45;;;;;;;;;;;;;;;;;;6219653;23;20369;-94
2023/02/17 13:23:12;;;;;;;;;;;;;;;;;;6194543;23;19966;-94
2023/02/17 13:25:38;;;;;;;;;;;;;;;;;;6194209;23;19915;-95
2023/02/17 13:28:04;;;;;;;;;;;;;;;;;;6194737;22;19960;-95
2023/02/17 13:30:30;;;;;;;;;;;;;;;;;;6195049;23;19962;-95
2023/02/17 13:32:56;;;;;;;;;;;;;;;;;;6195180;23;20427;-94
2023/02/17 13:35:24;;;;;;;;;;;;;;;;;;6194820;23;19920;-94
2023/02/17 13:37:53;;;;;;;;;;;;;;;;;;6219536;22;19926;-94
2023/02/17 13:40:19;;;;;;;;;;;;;;;;;;6194488;23;19951;-93
2023/02/17 13:42:46;;;;;;;;;;;;;;;;;;6194914;23;19922;-94
2023/02/17 13:45:12;;;;;;;;;;;;;;;;;;6211588;23;19997;-95
2023/02/17 13:47:38;;;;;;;;;;;;;;;;;;6244930;23;19916;-95
2023/02/17 13:50:04;;;;;;;;;;;;;;;;;;6244588;22;19962;-94
2023/02/17 13:52:30;;;;;;;;;;;;;;;;;;6219952;23;19915;-95
2023/02/17 13:54:56;;;;;;;;;;;;;;;;;;6219480;23;20341;-94
2023/02/17 13:57:22;;;;;;;;;;;;;;;;;;6244956;23;19916;-94
2023/02/17 13:59:51;;;;;;;;;;;;;;;;;;6245052;22;19927;-96
2023/02/17 14:02:17;;;;;;;;;;;;;;;;;;6219575;23;19916;-94
2023/02/17 14:04:43;;;;;;;;;;;;;;;;;;6244846;23;19987;-94
2023/02/17 14:07:09;;;;;;;;;;;;;;;;;;6218890;23;20252;-94
2023/02/17 14:09:35;;;;;;;;;;;;;;;;;;6219786;23;19915;-94
2023/02/17 14:12:01;;;;;;;;;;;;;;;;;;6244402;23;19916;-95
2023/02/17 14:14:27;;;;;;;;;;;;;;;;;;6245085;23;19942;-95
2023/02/17 14:16:53;;;;;;;;;;;;;;;;;;6245632;23;19920;-95
2023/02/17 14:19:22;;;;;;;;;;;;;;;;;;6246841;22;19926;-94
2023/02/17 14:21:48;;;;;;;;;;;;;;;;;;6221127;23;19951;-94
2023/02/17 14:24:14;;;;;;;;;;;;;;;;;;6221392;23;20339;-94
2023/02/17 14:26:40;;;;;;;;;;;;;;;;;;6221634;23;19916;-95
2023/02/17 14:29:06;;;;;;;;;;;;;;;;;;6221742;23;20347;-94
2023/02/17 14:31:32;;;;;;;;;;;;;;;;;;6247652;23;19923;-94
2023/02/17 14:33:58;;;;;;;;;;;;;;;;;;6221352;23;19924;-94
2023/02/17 14:36:24;;;;;;;;;;;;;;;;;;6247149;23;19915;-95
2023/02/17 14:38:49;;;;;;;;;;;;;;;;;;6221479;23;20051;-96
2023/02/17 14:41:15;;;;;;;;;;;;;;;;;;6221536;23;19962;-93
2023/02/17 14:43:41;;;;;;;;;;;;;;;;;;6225414;23;19927;-93
2023/02/17 14:46:07;;;;;;;;;;;;;;;;;;6225097;23;19955;-94
2023/02/17 14:48:33;;;;;;;;;;;;;;;;;;6225028;23;19943;-93
2023/02/17 14:50:59;;;;;;;;;;;;;;;;;;6226051;23;20237;-96
2023/02/17 14:53:25;;;;;;;;;;;;;;;;;;6196440;23;19973;-95
2023/02/17 14:55:52;;;;;;;;;;;;;;;;;;6221226;23;19986;-94
2023/02/17 14:58:18;;;;;;;;;;;;;;;;;;6195871;23;20351;-95
2023/02/17 15:00:44;;;;;;;;;;;;;;;;;;6221336;23;19955;-94
2023/02/17 15:03:10;;;;;;;;;;;;;;;;;;6221805;23;20240;-96
2023/02/17 15:05:36;;;;;;;;;;;;;;;;;;6221573;23;19982;-94
2023/02/17 15:08:02;;;;;;;;;;;;;;;;;;6221451;22;19938;-94
2023/02/17 15:10:31;;;;;;;;;;;;;;;;;;6196667;23;19990;-93
2023/02/17 15:12:57;;;;;;;;;;;;;;;;;;6196941;23;20253;-92
2023/02/17 15:15:23;;;;;;;;;;;;;;;;;;6197781;23;20348;-95
2023/02/17 15:17:49;;;;;;;;;;;;;;;;;;6220927;22;19926;-94
2023/02/17 15:20:14;;;;;;;;;;;;;;;;;;6221002;23;19939;-93
2023/02/17 15:22:40;;;;;;;;;;;;;;;;;;6195801;23;19916;-93
2023/02/17 15:25:08;;;;;;;;;;;;;;;;;;6220452;23;22113;-95
2023/02/17 15:27:34;;;;;;;;;;;;;;;;;;6195121;23;19977;-94
2023/02/17 15:30:00;;;;;;;;;;;;;;;;;;6195588;23;19922;-94
2023/02/17 15:32:26;;;;;;;;;;;;;;;;;;6195745;23;20348;-93
2023/02/17 15:34:54;;;;;;;;;;;;;;;;;;6195354;23;19998;-94
2023/02/17 15:37:20;;;;;;;;;;;;;;;;;;6221105;23;19927;-94
2023/02/17 15:39:46;;;;;;;;;;;;;;;;;;6195381;23;19915;-93
2023/02/17 15:42:12;;;;;;;;;;;;;;;;;;6195456;23;19915;-94
2023/02/17 15:44:38;;;;;;;;;;;;;;;;;;6246905;23;19920;-94
2023/02/17 15:47:05;;;;;;;;;;;;;;;;;;6195915;23;19924;-95
2023/02/17 15:49:31;;;;;;;;;;;;;;;;;;6195500;23;19925;-94
2023/02/17 15:51:57;;;;;;;;;;;;;;;;;;6220415;23;19916;-94
2023/02/17 15:54:23;;;;;;;;;;;;;;;;;;6195609;23;19977;-93
2023/02/17 15:56:49;;;;;;;;;;;;;;;;;;6220611;23;19971;-93
2023/02/17 15:59:15;;;;;;;;;;;;;;;;;;6194902;23;20383;-95
2023/02/17 16:01:41;;;;;;;;;;;;;;;;;;6220573;23;19979;-94
2023/02/17 16:04:07;;;;;;;;;;;;;;;;;;6218836;23;19915;-93
2023/02/17 16:06:33;;;;;;;;;;;;;;;;;;6219841;23;19915;-94
2023/02/17 16:08:59;;;;;;;;;;;;;;;;;;6195195;23;19985;-94
2023/02/17 16:11:25;;;;;;;;;;;;;;;;;;6195389;23;19951;-93
2023/02/17 16:13:51;;;;;;;;;;;;;;;;;;6195076;23;19920;-94
2023/02/17 16:16:17;;;;;;;;;;;;;;;;;;6195508;23;19916;-94
2023/02/17 16:18:46;;;;;;;;;;;;;;;;;;6195033;23;19915;-95
2023/02/17 16:21:12;;;;;;;;;;;;;;;;;;6220283;23;19916;-94
2023/02/17 16:23:38;;;;;;;;;;;;;;;;;;6194992;23;19926;-95
2023/02/17 16:26:04;;;;;;;;;;;;;;;;;;6220010;23;19915;-94
2023/02/17 16:28:30;;;;;;;;;;;;;;;;;;6220267;23;20177;-92
2023/02/17 16:30:56;;;;;;;;;;;;;;;;;;6219207;23;19982;-92
2023/02/17 16:33:22;;;;;;;;;;;;;;;;;;6194162;23;19923;-93
2023/02/17 16:35:48;;;;;;;;;;;;;;;;;;6195225;23;19921;-92
2023/02/17 16:38:14;;;;;;;;;;;;;;;;;;6194609;23;19970;-91
2023/02/17 16:40:45;;;;;;;;;;;;;;;;;;6193768;23;19916;-91
2023/02/17 16:43:11;;;;;;;;;;;;;;;;;;6195266;23;20012;-93
2023/02/17 16:45:37;;;;;;;;;;;;;;;;;;6216551;23;19920;-92
2023/02/17 16:48:03;;;;;;;;;;;;;;;;;;6246248;22;19915;-92
2023/02/17 16:50:29;;;;;;;;;;;;;;;;;;6222533;23;19920;-92
2023/02/17 16:52:55;;;;;;;;;;;;;;;;;;6218088;23;19923;-93
2023/02/17 16:55:21;;;;;;;;;;;;;;;;;;6218793;23;19970;-92
2023/02/17 16:57:48;;;;;;;;;;;;;;;;;;6245664;22;19922;-95
2023/02/17 17:00:16;;;;;;;;;;;;;;;;;;6220509;23;20384;-94
2023/02/17 17:02:42;;;;;;;;;;;;;;;;;;6245859;23;19915;-94
2023/02/17 17:05:09;;;;;;;;;;;;;;;;;;6219468;23;19923;-92
2023/02/17 17:07:35;;;;;;;;;;;;;;;;;;6245089;23;19916;-93
2023/02/17 17:10:25;;;;;;;;;;;;;;;;;;6220636;23;20012;-96
2023/02/17 17:12:54;;;;;;;;;;;;;;;;;;6222390;23;20010;-96
2023/02/17 17:15:20;;;;;;;;;;;;;;;;;;6220464;23;19919;-91
2023/02/17 17:17:46;;;;;;;;;;;;;;;;;;6244470;22;19922;-90
2023/02/17 17:20:12;;;;;;;;;;;;;;;;;;6218802;23;19916;-91
2023/02/17 17:22:38;;;;;;;;;;;;;;;;;;6219337;23;19990;-92
2023/02/17 17:25:04;;;;;;;;;;;;;;;;;;6219241;23;19916;-94
2023/02/17 17:27:30;;;;;;;;;;;;;;;;;;6219144;23;19920;-94
2023/02/17 17:29:56;;;;;;;;;;;;;;;;;;6219846;23;19916;-96